Saint Joseph, MO

4:22 PM CDT on September 17, 2014 (GMT -0500)
KMOSTJOS3 | Change Station
CLOSE
Current Station
Personal Weather Station
Location: St Joseph, MO
Elevation: 965 ft
Nearby Weather Stations

Elev 965 ft 39.77 °N, 94.82 °W | Updated 1 minute ago

Partly Cloudy
Partly Cloudy
76.8 °F
Feels Like 78 °F
N
0.0
Wind Variable Wind from SSW
Gusts 0.0 mph

Today
High -- | Low -- °F
--% Chance of Precip.
Yesterday
High -- | Low -- °F
Precip. -- in
7:02 AM 7:24 PM
Waning Crescent, 33% visible
Pressure 29.88 in
Visibility 10.0 miles
Clouds Mostly Cloudy 3000 ft
Heat Index 78 °F
Dew Point 55 °F
Humidity 47%
Rainfall 0.00 in
Snow Depth Not available.
UV 2 out of 12
Pollen 4.30 out of 12
Air Quality Not available.
Flu Activity Not available.
METAR KSTJ 172053Z AUTO 13004KT 10SM BKN030 26/18 A2989 RMK AO2 SLP116 T02560183 58010

More Conditions Fewer Conditions

Pressure 29.88 in
Visibility 10.0 miles
Clouds Mostly Cloudy 3000 ft
Heat Index 78 °F
Dew Point 55 °F
Humidity 47%
Rainfall 0.00 in
Snow Depth Not available.
UV 2 out of 12
Pollen 4.30 out of 12
Air Quality Not available.
Flu Activity Not available.
METAR KSTJ 172053Z AUTO 13004KT 10SM BKN030 26/18 A2989 RMK AO2 SLP116 T02560183 58010

More Conditions Fewer Conditions

10-Day Weather Forecast

Almanac

Astronomy

Sep. 17, 2014 Rise Set
Actual Time 7:02 AM CDT 7:24 PM CDT
Civil Twilight 6:35 AM CDT 7:51 PM CDT
Nautical Twilight 6:03 AM CDT 8:23 PM CDT
Astronomical Twilight 5:30 AM CDT 8:55 PM CDT
Moon 1:03 AM CDT 3:34 PM CDT
Length of Visible Light 13h 16m
Length of Day
12h 22m
Tomorrow will be 2m 36s shorter.
Waning Crescent, 33% of the Moon is Illuminated
Today
Waning Crescent
Sep 24
New
Oct 1
First Quarter
Oct 8
Full
Oct 15
Last Quarter

Today's Extremes

State Highs State Lows

Community

WunderPhotos

Upload Photos

1,754,168 photos uploaded!

Nearby

Snow Depth

Station Depth Elevation
No new snow has been reported.

Earthquake Activity

City Distance Mag. Time & Date
No recent earthquake activity has been reported nearby.
Minimum magnitude displayed is 2.5.

Coastal Water Temperatures

Place Temperature
No Stations Reporting

Nearby Weather Stations